Stellar, Texas
Current Conditions -  °F | °C
As of 10:30 AM on Saturday 20 Dec 2014 (Local Time) from K3T5 Reporting Station
Overcast Overcast  
Wind Chill: 53°   Ceiling: 1000
Heat Index: 53°   Visibility: 10mi
Dew Point: 49°   Wind: 5mph
Humidity: 88%   Direction: 20°NNE
Pressure: 30.22"   Gusts: NA
Location:  29.7805°N, 97.1131°W
Report Text: K3T5 201630Z AUTO 02004KT 10SM OVC010 12/10 A3022 RMK AO2 T01150096
Loading
Personal Weather Stations






























Interactive Weather Map New forecast layout! Learn more

10-Day Weather Forecast

Advertisements
Track Severe Weather on mobile